Time;durP1;ratioP1;P1;durP2;ratioP2;P2;SDS_P1;SDS_P2;PMS_P1;PMS_P2;Temp;Humidity;BMP_temperature;BMP_pressure;BME280_temperature;BME280_humidity;BME280_pressure;Samples;Min_cycle;Max_cycle;Signal;HPM_P1;HPM_P2
2022/07/06 00:10:17;;;;;;;;;;;;;;;25.11;49.48;100116.88;31013162;28;20058;-80
2022/07/06 00:25:19;;;;;;;25.23;15.32;;;;;;;25.04;48.02;100104.28;31017795;28;19943;-80
2022/07/06 00:40:21;;;;;;;14.77;7.45;;;;;;;24.80;49.20;100096.63;30992969;28;20065;-80
2022/07/06 00:55:26;;;;;;;10.45;6.78;;;;;;;24.52;50.93;100089.81;31004654;28;20046;-79
2022/07/06 01:10:28;;;;;;;13.25;6.68;;;;;;;24.41;51.26;100082.31;30996833;28;20054;-79
2022/07/06 01:25:30;;;;;;;9.97;6.50;;;;;;;24.25;52.74;100085.94;30978116;28;20062;-79
2022/07/06 01:40:31;;;;;;;10.53;6.60;;;;;;;24.10;53.16;100103.63;31017073;28;20062;-79
2022/07/06 01:55:33;;;;;;;10.87;6.37;;;;;;;24.01;53.86;100103.94;30977642;28;20071;-80
2022/07/06 02:10:35;;;;;;;10.13;6.90;;;;;;;24.05;54.31;100107.19;30966409;28;20047;-80
2022/07/06 02:25:37;;;;;;;12.87;7.30;;;;;;;24.05;54.45;100100.91;30988493;28;20046;-79
2022/07/06 02:40:39;;;;;;;13.90;8.60;;;;;;;23.94;55.44;100106.47;31003605;28;20053;-80
2022/07/06 02:55:41;;;;;;;11.27;8.43;;;;;;;23.93;55.87;100102.19;31016637;28;20042;-80
2022/07/06 03:10:43;;;;;;;14.93;8.70;;;;;;;24.00;56.06;100110.75;30988096;28;20051;-79
2022/07/06 03:25:46;;;;;;;14.77;9.37;;;;;;;24.38;56.75;100105.50;30982343;28;20057;-81
2022/07/06 03:40:48;;;;;;;14.18;9.20;;;;;;;24.64;58.26;100116.94;31006968;28;20051;-80
2022/07/06 04:11:10;;;;;;;15.85;9.70;;;;;;;25.56;60.64;100127.53;30971379;28;20307;-80
2022/07/06 04:26:12;;;;;;;;;;;;;;;26.12;54.39;100120.09;31003361;28;20451;-82
2022/07/06 04:41:14;;;;;;;23.23;11.45;;;;;;;26.61;51.78;100119.94;30995357;28;19937;-80
2022/07/06 04:56:16;;;;;;;15.77;10.68;;;;;;;27.42;49.58;100112.00;30957065;28;20082;-81
2022/07/06 05:11:18;;;;;;;19.30;11.88;;;;;;;28.07;47.00;100118.84;30958904;28;20137;-81
2022/07/06 05:26:20;;;;;;;20.13;11.45;;;;;;;28.70;45.22;100121.78;30969383;28;20525;-81
2022/07/06 05:41:22;;;;;;;21.15;11.90;;;;;;;29.14;44.39;100125.53;30943411;28;20058;-81
2022/07/06 05:56:30;;;;;;;20.00;12.55;;;;;;;30.17;41.38;100113.31;30971589;28;20403;-81
2022/07/06 06:11:32;;;;;;;22.00;12.57;;;;;;;30.14;39.03;100110.88;30967509;28;20141;-82
2022/07/06 06:26:33;;;;;;;24.27;14.43;;;;;;;31.01;37.57;100116.25;30933136;28;20114;-85
2022/07/06 06:41:37;;;;;;;21.52;12.18;;;;;;;31.76;35.53;100097.88;30969629;28;20438;-86
2022/07/06 06:56:39;;;;;;;25.00;13.48;;;;;;;32.30;34.60;100087.16;30975938;28;20463;-85
2022/07/06 07:11:41;;;;;;;24.88;12.50;;;;;;;32.73;32.86;100088.72;30950509;28;20050;-86
2022/07/06 07:26:43;;;;;;;21.58;10.30;;;;;;;33.10;30.92;100086.94;30974774;28;20047;-85
2022/07/06 07:41:45;;;;;;;22.05;13.60;;;;;;;33.63;31.91;100074.41;30967570;28;20045;-79
2022/07/06 07:56:47;;;;;;;15.32;9.50;;;;;;;34.27;29.56;100080.16;30982407;28;20051;-80
2022/07/06 08:11:49;;;;;;;14.23;8.18;;;;;;;34.10;29.77;100078.16;30965055;28;20082;-80
2022/07/06 08:26:51;;;;;;;11.00;7.38;;;;;;;34.84;27.76;100071.25;30982080;28;20134;-80
2022/07/06 08:41:56;;;;;;;7.43;6.28;;;;;;;35.28;26.94;100065.41;30949589;28;20173;-79
2022/07/06 08:56:59;;;;;;;14.05;7.40;;;;;;;34.00;28.13;100060.47;30964946;28;20050;-86
2022/07/06 09:12:01;;;;;;;10.85;6.80;;;;;;;35.18;27.71;100056.19;30978472;28;20064;-85
2022/07/06 09:27:05;;;;;;;10.48;8.60;;;;;;;35.97;27.24;100050.66;30963365;28;20058;-84
2022/07/06 09:42:10;;;;;;;24.85;11.95;;;;;;;36.89;25.29;100038.69;30990480;28;20054;-85
2022/07/06 09:57:13;;;;;;;11.20;5.90;;;;;;;37.09;23.65;100033.63;30968882;28;20452;-85
2022/07/06 10:12:19;;;;;;;12.95;5.93;;;;;;;37.66;23.55;100030.97;30944450;28;20464;-86
2022/07/06 10:27:22;;;;;;;9.07;5.77;;;;;;;37.26;23.59;100029.81;30971239;28;20055;-84
2022/07/06 10:42:43;;;;;;;7.78;6.45;;;;;;;35.30;24.93;100014.78;30973655;28;20046;-83
2022/07/06 10:57:52;;;;;;;11.82;6.90;;;;;;;36.45;24.20;100007.38;31015121;28;20166;-81
2022/07/06 11:13:03;;;;;;;33.75;23.63;;;;;;;37.02;24.19;99982.94;30999398;28;20064;-81
2022/07/06 11:28:05;;;;;;;7.15;5.78;;;;;;;35.91;24.54;99976.78;30982072;28;20050;-83
2022/07/06 11:43:07;;;;;;;8.68;5.93;;;;;;;34.13;26.12;99978.41;30973117;28;20057;-84
2022/07/06 11:58:11;;;;;;;11.40;6.15;;;;;;;33.59;26.97;99960.75;30990966;28;20054;-84
2022/07/06 12:13:13;;;;;;;8.85;6.25;;;;;;;34.24;27.01;99960.22;30968971;28;20066;-84
2022/07/06 12:28:22;;;;;;;8.95;5.57;;;;;;;34.31;26.34;99948.09;30969102;28;21071;-83
2022/07/06 12:43:41;;;;;;;8.65;5.70;;;;;;;34.19;26.31;99923.31;30968595;28;20050;-82
2022/07/06 12:58:57;;;;;;;7.50;6.53;;;;;;;33.81;26.40;99920.31;30974110;28;20050;-82
2022/07/06 13:13:59;;;;;;;8.07;6.28;;;;;;;33.75;26.82;99911.41;30973772;28;20062;-72
2022/07/06 13:29:03;;;;;;;6.57;5.70;;;;;;;33.74;27.07;99905.03;30954132;28;20050;-78
2022/07/06 13:44:07;;;;;;;9.73;5.95;;;;;;;33.59;26.75;99893.22;30985112;28;20062;-73
2022/07/06 13:59:15;;;;;;;7.18;6.00;;;;;;;33.47;27.06;99876.88;30951374;28;20050;-71
2022/07/06 14:14:17;;;;;;;7.85;5.00;;;;;;;33.43;26.99;99876.56;30942914;28;20062;-72
2022/07/06 14:29:19;;;;;;;11.98;6.38;;;;;;;33.23;28.28;99894.63;30948345;28;20591;-72
2022/07/06 14:44:21;;;;;;;11.95;5.80;;;;;;;32.88;30.33;99869.38;30940696;28;20532;-73
2022/07/06 14:59:23;;;;;;;7.90;5.45;;;;;;;32.40;32.31;99885.03;30948346;28;20053;-74
2022/07/06 15:14:26;;;;;;;8.10;4.22;;;;;;;32.27;32.33;99868.50;30947407;28;20134;-77
2022/07/06 15:29:28;;;;;;;6.53;3.83;;;;;;;32.00;32.69;99871.88;30947107;28;20055;-70
2022/07/06 15:44:30;;;;;;;10.18;4.15;;;;;;;31.84;32.57;99870.53;30962211;28;20047;-76
2022/07/06 15:59:33;;;;;;;8.07;4.50;;;;;;;31.65;32.66;99873.06;30974168;28;20065;-75
2022/07/06 16:14:34;;;;;;;8.43;4.18;;;;;;;31.40;32.43;99881.44;30940936;28;20057;-72
2022/07/06 16:29:36;;;;;;;9.02;3.85;;;;;;;31.12;32.91;99882.50;30931818;28;20065;-73
2022/07/06 16:44:38;;;;;;;11.55;3.63;;;;;;;30.75;33.40;99887.63;30912629;28;20050;-72
2022/07/06 16:59:42;;;;;;;8.27;3.78;;;;;;;30.47;33.71;99896.97;30979197;28;20046;-74
2022/07/06 17:14:44;;;;;;;12.15;3.67;;;;;;;30.17;34.11;99892.19;30981222;28;20130;-71
2022/07/06 17:29:46;;;;;;;6.95;3.95;;;;;;;29.81;35.15;99891.56;30988879;28;20069;-72
2022/07/06 17:44:48;;;;;;;9.38;3.63;;;;;;;29.40;37.06;99896.13;31011760;28;20050;-71
2022/07/06 17:59:51;;;;;;;6.70;4.03;;;;;;;29.08;38.23;99909.75;30925095;28;20061;-72
2022/07/06 18:14:53;;;;;;;10.07;4.20;;;;;;;28.72;39.59;99932.81;30993412;28;20073;-73
2022/07/06 18:29:55;;;;;;;6.85;3.65;;;;;;;28.36;40.43;99943.16;30960989;28;20062;-73
2022/07/06 18:44:57;;;;;;;9.98;3.80;;;;;;;28.05;41.72;99950.50;30984256;28;20066;-72
2022/07/06 18:59:59;;;;;;;7.72;4.13;;;;;;;27.69;42.43;99950.28;30946493;28;20952;-73
2022/07/06 19:15:01;;;;;;;11.32;3.97;;;;;;;27.49;41.74;99963.63;30999865;28;20058;-73
2022/07/06 19:30:03;;;;;;;9.00;3.85;;;;;;;27.24;41.50;99956.78;30977650;28;20066;-73
2022/07/06 19:45:06;;;;;;;6.55;3.35;;;;;;;27.13;41.86;99962.59;31005871;28;20060;-72
2022/07/06 20:00:09;;;;;;;7.57;6.20;;;;;;;26.93;42.45;99960.44;30965692;28;20058;-72
2022/07/06 20:15:11;;;;;;;9.35;5.53;;;;;;;26.76;43.03;99953.13;30949676;28;20054;-73
2022/07/06 20:30:13;;;;;;;5.45;3.58;;;;;;;26.64;43.97;99962.97;30983661;28;20058;-72
2022/07/06 20:45:15;;;;;;;8.80;3.92;;;;;;;26.59;44.59;99972.16;30973634;28;20412;-73
2022/07/06 21:00:18;;;;;;;5.90;2.80;;;;;;;26.58;45.02;99970.66;30961494;28;20066;-73
2022/07/06 21:15:20;;;;;;;13.52;3.90;;;;;;;26.55;44.44;99970.97;30955264;28;20824;-71
2022/07/06 21:30:22;;;;;;;3.70;2.65;;;;;;;26.55;43.84;99966.16;30976078;28;20057;-72
2022/07/06 21:45:24;;;;;;;7.32;3.17;;;;;;;26.61;43.48;99963.28;30973700;28;20062;-72
2022/07/06 22:00:26;;;;;;;4.70;2.92;;;;;;;26.63;42.99;99960.72;31009072;28;20061;-71
2022/07/06 22:15:29;;;;;;;4.30;2.85;;;;;;;26.60;42.76;99973.66;30986859;28;20049;-72
2022/07/06 22:30:31;;;;;;;10.02;3.15;;;;;;;26.51;42.63;99965.72;30984530;28;20391;-71
2022/07/06 22:45:33;;;;;;;6.03;2.85;;;;;;;26.34;43.29;99970.81;31005626;28;20057;-71
2022/07/06 23:00:35;;;;;;;4.05;2.88;;;;;;;26.17;44.49;99979.41;31026747;28;20488;-71
2022/07/06 23:15:37;;;;;;;11.25;3.30;;;;;;;25.97;46.00;99983.50;31026295;28;20062;-71
2022/07/06 23:30:39;;;;;;;7.05;3.03;;;;;;;25.75;49.61;99989.34;31032072;28;20050;-70
2022/07/06 23:45:41;;;;;;;;;;;;;;;25.54;58.11;99982.78;31015273;28;20058;-71
